sensor_id;sensor_type;location;lat;lon;timestamp;pressure;altitude;pressure_sealevel;temperature;humidity
72308;BME280;60257;42.638;23.376;2022-07-30T00:01:39;94646.41;;;21.81;51.96
72308;BME280;60257;42.638;23.376;2022-07-30T00:04:05;94648.53;;;21.74;52.29
72308;BME280;60257;42.638;23.376;2022-07-30T00:06:30;94639.97;;;21.61;52.89
72308;BME280;60257;42.638;23.376;2022-07-30T00:08:56;94640.34;;;21.63;52.30
72308;BME280;60257;42.638;23.376;2022-07-30T00:11:23;94641.94;;;21.60;52.48
72308;BME280;60257;42.638;23.376;2022-07-30T00:13:49;94640.88;;;21.54;52.87
72308;BME280;60257;42.638;23.376;2022-07-30T00:16:14;94637.31;;;21.54;52.74
72308;BME280;60257;42.638;23.376;2022-07-30T00:18:40;94637.06;;;21.45;52.92
72308;BME280;60257;42.638;23.376;2022-07-30T00:21:05;94626.34;;;21.43;52.93
72308;BME280;60257;42.638;23.376;2022-07-30T00:23:31;94624.22;;;21.51;52.73
72308;BME280;60257;42.638;23.376;2022-07-30T00:25:57;94629.06;;;21.47;52.47
72308;BME280;60257;42.638;23.376;2022-07-30T00:28:22;94628.28;;;21.46;52.89
72308;BME280;60257;42.638;23.376;2022-07-30T00:30:48;94626.50;;;21.59;52.09
72308;BME280;60257;42.638;23.376;2022-07-30T00:33:13;94628.97;;;21.54;52.02
72308;BME280;60257;42.638;23.376;2022-07-30T00:35:39;94629.69;;;21.58;52.21
72308;BME280;60257;42.638;23.376;2022-07-30T00:38:04;94626.91;;;21.58;52.24
72308;BME280;60257;42.638;23.376;2022-07-30T00:40:29;94631.63;;;21.61;52.13
72308;BME280;60257;42.638;23.376;2022-07-30T00:42:55;94625.66;;;21.63;52.34
72308;BME280;60257;42.638;23.376;2022-07-30T00:45:21;94623.66;;;21.63;52.18
72308;BME280;60257;42.638;23.376;2022-07-30T00:47:47;94623.75;;;21.56;52.57
72308;BME280;60257;42.638;23.376;2022-07-30T00:50:13;94621.91;;;21.49;52.89
72308;BME280;60257;42.638;23.376;2022-07-30T00:52:39;94616.34;;;21.49;52.97
72308;BME280;60257;42.638;23.376;2022-07-30T00:55:07;94626.75;;;21.42;52.99
72308;BME280;60257;42.638;23.376;2022-07-30T00:57:33;94614.06;;;21.41;53.02
72308;BME280;60257;42.638;23.376;2022-07-30T00:59:59;94618.16;;;21.33;53.32
72308;BME280;60257;42.638;23.376;2022-07-30T01:02:25;94613.34;;;21.37;53.13
72308;BME280;60257;42.638;23.376;2022-07-30T01:04:50;94616.44;;;21.42;53.26
72308;BME280;60257;42.638;23.376;2022-07-30T01:07:16;94614.03;;;21.44;53.00
72308;BME280;60257;42.638;23.376;2022-07-30T01:09:41;94605.47;;;21.32;53.33
72308;BME280;60257;42.638;23.376;2022-07-30T01:12:08;94605.38;;;21.39;53.07
72308;BME280;60257;42.638;23.376;2022-07-30T01:14:35;94612.59;;;21.33;53.27
72308;BME280;60257;42.638;23.376;2022-07-30T01:17:02;94599.19;;;21.28;53.48
72308;BME280;60257;42.638;23.376;2022-07-30T01:19:32;94599.44;;;21.37;53.28
72308;BME280;60257;42.638;23.376;2022-07-30T01:22:28;94612.34;;;21.24;53.54
72308;BME280;60257;42.638;23.376;2022-07-30T01:27:46;94616.50;;;21.39;53.33
72308;BME280;60257;42.638;23.376;2022-07-30T01:30:14;94617.44;;;21.29;53.90
72308;BME280;60257;42.638;23.376;2022-07-30T01:32:42;94611.94;;;21.25;54.02
72308;BME280;60257;42.638;23.376;2022-07-30T01:35:10;94616.09;;;21.10;54.17
72308;BME280;60257;42.638;23.376;2022-07-30T01:37:37;94615.66;;;21.11;54.22
72308;BME280;60257;42.638;23.376;2022-07-30T01:40:04;94606.88;;;21.16;54.29
72308;BME280;60257;42.638;23.376;2022-07-30T01:42:32;94615.22;;;21.16;53.97
72308;BME280;60257;42.638;23.376;2022-07-30T01:44:59;94617.56;;;21.18;54.32
72308;BME280;60257;42.638;23.376;2022-07-30T01:47:26;94610.69;;;21.30;53.63
72308;BME280;60257;42.638;23.376;2022-07-30T01:49:53;94607.09;;;21.29;53.90
72308;BME280;60257;42.638;23.376;2022-07-30T01:52:20;94608.16;;;21.39;53.27
72308;BME280;60257;42.638;23.376;2022-07-30T01:54:49;94610.03;;;21.18;53.70
72308;BME280;60257;42.638;23.376;2022-07-30T01:57:17;94607.50;;;21.28;53.52
72308;BME280;60257;42.638;23.376;2022-07-30T01:59:50;94604.91;;;21.44;52.83
72308;BME280;60257;42.638;23.376;2022-07-30T02:02:16;94609.91;;;21.52;52.51
72308;BME280;60257;42.638;23.376;2022-07-30T02:04:41;94608.41;;;21.71;51.86
72308;BME280;60257;42.638;23.376;2022-07-30T02:07:17;94606.44;;;21.72;51.95
72308;BME280;60257;42.638;23.376;2022-07-30T02:09:52;94608.72;;;21.53;52.71
72308;BME280;60257;42.638;23.376;2022-07-30T02:12:20;94601.16;;;21.54;52.85
72308;BME280;60257;42.638;23.376;2022-07-30T02:15:28;94608.34;;;21.51;52.29
72308;BME280;60257;42.638;23.376;2022-07-30T02:18:23;94599.34;;;21.67;51.57
72308;BME280;60257;42.638;23.376;2022-07-30T02:20:57;94593.69;;;21.74;51.36
72308;BME280;60257;42.638;23.376;2022-07-30T02:23:25;94586.06;;;21.55;52.37
72308;BME280;60257;42.638;23.376;2022-07-30T02:25:52;94588.41;;;21.56;52.27
72308;BME280;60257;42.638;23.376;2022-07-30T02:28:19;94586.81;;;21.55;52.02
72308;BME280;60257;42.638;23.376;2022-07-30T02:30:50;94591.31;;;21.73;51.97
72308;BME280;60257;42.638;23.376;2022-07-30T02:33:21;94584.00;;;21.82;51.38
72308;BME280;60257;42.638;23.376;2022-07-30T02:35:49;94588.16;;;21.71;52.10
72308;BME280;60257;42.638;23.376;2022-07-30T02:38:17;94584.66;;;21.93;51.32
72308;BME280;60257;42.638;23.376;2022-07-30T02:40:45;94580.38;;;21.85;51.51
72308;BME280;60257;42.638;23.376;2022-07-30T02:43:13;94586.00;;;21.58;51.99
72308;BME280;60257;42.638;23.376;2022-07-30T02:45:41;94586.91;;;21.52;52.44
72308;BME280;60257;42.638;23.376;2022-07-30T02:48:09;94585.31;;;21.51;52.28
72308;BME280;60257;42.638;23.376;2022-07-30T02:50:36;94584.50;;;21.54;52.35
72308;BME280;60257;42.638;23.376;2022-07-30T02:53:07;94579.44;;;21.45;52.85
72308;BME280;60257;42.638;23.376;2022-07-30T02:55:34;94583.06;;;21.42;52.91
72308;BME280;60257;42.638;23.376;2022-07-30T02:58:03;94583.88;;;21.43;53.03
72308;BME280;60257;42.638;23.376;2022-07-30T03:00:30;94579.25;;;21.33;53.49
72308;BME280;60257;42.638;23.376;2022-07-30T03:02:57;94579.81;;;21.47;53.36
72308;BME280;60257;42.638;23.376;2022-07-30T03:05:23;94572.81;;;21.39;53.49
72308;BME280;60257;42.638;23.376;2022-07-30T03:07:50;94572.44;;;21.37;53.40
72308;BME280;60257;42.638;23.376;2022-07-30T03:10:19;94576.72;;;21.42;53.48
72308;BME280;60257;42.638;23.376;2022-07-30T03:12:45;94567.09;;;21.50;53.30
72308;BME280;60257;42.638;23.376;2022-07-30T03:15:11;94570.34;;;21.45;53.78
72308;BME280;60257;42.638;23.376;2022-07-30T03:17:42;94570.06;;;21.36;53.95
72308;BME280;60257;42.638;23.376;2022-07-30T03:20:10;94569.81;;;21.27;54.43
72308;BME280;60257;42.638;23.376;2022-07-30T03:22:40;94570.66;;;21.24;54.29
72308;BME280;60257;42.638;23.376;2022-07-30T03:25:08;94565.97;;;21.21;54.23
72308;BME280;60257;42.638;23.376;2022-07-30T03:27:36;94567.75;;;21.31;53.74
72308;BME280;60257;42.638;23.376;2022-07-30T03:30:05;94569.66;;;21.37;53.77
72308;BME280;60257;42.638;23.376;2022-07-30T03:32:31;94573.06;;;21.22;54.43
72308;BME280;60257;42.638;23.376;2022-07-30T03:34:58;94574.78;;;21.12;54.59
72308;BME280;60257;42.638;23.376;2022-07-30T03:37:25;94582.31;;;21.11;54.54
72308;BME280;60257;42.638;23.376;2022-07-30T03:39:52;94574.78;;;21.12;54.95
72308;BME280;60257;42.638;23.376;2022-07-30T03:42:19;94577.53;;;21.12;54.65
72308;BME280;60257;42.638;23.376;2022-07-30T03:44:45;94577.59;;;21.08;55.14
72308;BME280;60257;42.638;23.376;2022-07-30T03:47:12;94585.63;;;21.03;55.35
72308;BME280;60257;42.638;23.376;2022-07-30T03:49:39;94586.03;;;21.01;55.59
72308;BME280;60257;42.638;23.376;2022-07-30T03:52:05;94579.78;;;20.94;55.61
72308;BME280;60257;42.638;23.376;2022-07-30T03:54:32;94586.22;;;20.87;55.96
72308;BME280;60257;42.638;23.376;2022-07-30T03:57:02;94583.91;;;20.82;56.28
72308;BME280;60257;42.638;23.376;2022-07-30T03:59:28;94580.06;;;20.76;56.76
72308;BME280;60257;42.638;23.376;2022-07-30T04:01:54;94585.63;;;20.72;56.48
72308;BME280;60257;42.638;23.376;2022-07-30T04:04:24;94586.41;;;20.77;56.73
72308;BME280;60257;42.638;23.376;2022-07-30T04:06:49;94593.47;;;20.81;56.26
72308;BME280;60257;42.638;23.376;2022-07-30T04:09:15;94590.13;;;20.93;55.98
72308;BME280;60257;42.638;23.376;2022-07-30T04:11:40;94590.81;;;21.01;56.29
72308;BME280;60257;42.638;23.376;2022-07-30T04:14:05;94592.75;;;21.34;55.23
72308;BME280;60257;42.638;23.376;2022-07-30T04:16:53;94598.53;;;21.16;55.60
72308;BME280;60257;42.638;23.376;2022-07-30T04:19:25;94589.06;;;21.14;55.22
72308;BME280;60257;42.638;23.376;2022-07-30T04:21:53;94593.38;;;21.18;55.19
72308;BME280;60257;42.638;23.376;2022-07-30T04:24:20;94590.44;;;21.29;55.26
72308;BME280;60257;42.638;23.376;2022-07-30T04:26:46;94593.00;;;21.43;54.79
72308;BME280;60257;42.638;23.376;2022-07-30T04:29:13;94593.66;;;21.51;54.74
72308;BME280;60257;42.638;23.376;2022-07-30T04:31:39;94596.94;;;21.69;54.26
72308;BME280;60257;42.638;23.376;2022-07-30T04:34:05;94598.69;;;21.83;53.68
72308;BME280;60257;42.638;23.376;2022-07-30T04:36:31;94593.00;;;21.93;53.41
72308;BME280;60257;42.638;23.376;2022-07-30T04:38:58;94595.38;;;21.91;53.81
72308;BME280;60257;42.638;23.376;2022-07-30T04:41:24;94596.34;;;22.04;53.48
72308;BME280;60257;42.638;23.376;2022-07-30T04:43:50;94591.53;;;22.09;53.46
72308;BME280;60257;42.638;23.376;2022-07-30T04:46:16;94599.13;;;22.28;52.56
72308;BME280;60257;42.638;23.376;2022-07-30T04:48:41;94599.84;;;22.32;52.66
72308;BME280;60257;42.638;23.376;2022-07-30T04:51:28;94601.19;;;22.43;52.52
72308;BME280;60257;42.638;23.376;2022-07-30T04:53:57;94599.16;;;22.48;52.55
72308;BME280;60257;42.638;23.376;2022-07-30T04:56:24;94598.91;;;22.38;52.92
72308;BME280;60257;42.638;23.376;2022-07-30T04:58:51;94597.28;;;22.41;53.00
72308;BME280;60257;42.638;23.376;2022-07-30T05:01:22;94603.63;;;22.61;52.02
72308;BME280;60257;42.638;23.376;2022-07-30T05:03:50;94595.13;;;22.68;52.46
72308;BME280;60257;42.638;23.376;2022-07-30T05:06:18;94600.09;;;22.80;51.68
72308;BME280;60257;42.638;23.376;2022-07-30T05:08:44;94594.91;;;22.99;51.81
72308;BME280;60257;42.638;23.376;2022-07-30T05:11:12;94593.63;;;23.03;51.10
72308;BME280;60257;42.638;23.376;2022-07-30T05:13:46;94592.03;;;23.02;51.59
72308;BME280;60257;42.638;23.376;2022-07-30T05:16:13;94590.84;;;23.03;51.11
72308;BME280;60257;42.638;23.376;2022-07-30T05:18:39;94592.84;;;23.03;51.66
72308;BME280;60257;42.638;23.376;2022-07-30T05:21:05;94595.63;;;23.03;51.47
72308;BME280;60257;42.638;23.376;2022-07-30T05:23:31;94599.34;;;23.32;51.01
72308;BME280;60257;42.638;23.376;2022-07-30T05:25:56;94597.00;;;23.30;51.05
72308;BME280;60257;42.638;23.376;2022-07-30T05:28:22;94600.78;;;23.40;51.46
72308;BME280;60257;42.638;23.376;2022-07-30T05:30:48;94594.53;;;23.52;52.26
72308;BME280;60257;42.638;23.376;2022-07-30T05:33:13;94596.44;;;23.71;51.58
72308;BME280;60257;42.638;23.376;2022-07-30T05:35:39;94603.34;;;23.83;52.14
72308;BME280;60257;42.638;23.376;2022-07-30T05:38:05;94603.09;;;23.94;51.42
72308;BME280;60257;42.638;23.376;2022-07-30T05:40:30;94599.56;;;24.06;51.29
72308;BME280;60257;42.638;23.376;2022-07-30T05:42:56;94594.41;;;24.04;51.32
72308;BME280;60257;42.638;23.376;2022-07-30T05:45:21;94604.81;;;24.20;50.75
72308;BME280;60257;42.638;23.376;2022-07-30T05:47:47;94600.09;;;24.33;50.39
72308;BME280;60257;42.638;23.376;2022-07-30T05:50:12;94605.31;;;24.47;50.38
72308;BME280;60257;42.638;23.376;2022-07-30T05:52:38;94600.56;;;24.44;49.75
72308;BME280;60257;42.638;23.376;2022-07-30T05:55:04;94606.38;;;24.37;50.17
72308;BME280;60257;42.638;23.376;2022-07-30T05:57:29;94603.47;;;24.41;50.96
72308;BME280;60257;42.638;23.376;2022-07-30T05:59:55;94599.19;;;24.52;50.61
72308;BME280;60257;42.638;23.376;2022-07-30T06:02:20;94594.44;;;24.49;50.04
72308;BME280;60257;42.638;23.376;2022-07-30T06:04:46;94597.25;;;24.49;50.90
72308;BME280;60257;42.638;23.376;2022-07-30T06:07:11;94590.16;;;24.61;50.28
72308;BME280;60257;42.638;23.376;2022-07-30T06:09:37;94593.72;;;24.90;49.44
72308;BME280;60257;42.638;23.376;2022-07-30T06:12:03;94598.53;;;24.90;49.63
72308;BME280;60257;42.638;23.376;2022-07-30T06:14:28;94603.47;;;24.98;48.89
72308;BME280;60257;42.638;23.376;2022-07-30T06:16:56;94608.72;;;24.96;49.02
72308;BME280;60257;42.638;23.376;2022-07-30T06:19:21;94611.59;;;24.93;49.69
72308;BME280;60257;42.638;23.376;2022-07-30T06:21:47;94609.84;;;24.99;48.12
72308;BME280;60257;42.638;23.376;2022-07-30T06:24:12;94605.75;;;25.16;47.59
72308;BME280;60257;42.638;23.376;2022-07-30T06:26:38;94609.97;;;25.08;48.07
72308;BME280;60257;42.638;23.376;2022-07-30T06:29:03;94606.38;;;25.08;47.40
72308;BME280;60257;42.638;23.376;2022-07-30T06:31:29;94605.41;;;25.14;47.99
72308;BME280;60257;42.638;23.376;2022-07-30T06:33:54;94604.06;;;25.19;47.43
72308;BME280;60257;42.638;23.376;2022-07-30T06:36:19;94609.69;;;25.44;45.45
72308;BME280;60257;42.638;23.376;2022-07-30T06:38:45;94606.53;;;25.42;45.45
72308;BME280;60257;42.638;23.376;2022-07-30T06:41:10;94606.66;;;25.38;46.47
72308;BME280;60257;42.638;23.376;2022-07-30T06:43:36;94601.66;;;25.59;45.03
72308;BME280;60257;42.638;23.376;2022-07-30T06:46:02;94598.88;;;25.59;45.27
72308;BME280;60257;42.638;23.376;2022-07-30T06:48:29;94594.84;;;25.60;44.92
72308;BME280;60257;42.638;23.376;2022-07-30T06:50:55;94592.25;;;25.78;43.93
72308;BME280;60257;42.638;23.376;2022-07-30T06:53:21;94588.56;;;25.68;45.03
72308;BME280;60257;42.638;23.376;2022-07-30T06:55:46;94588.44;;;25.72;44.94
72308;BME280;60257;42.638;23.376;2022-07-30T06:58:12;94588.91;;;25.70;45.73
72308;BME280;60257;42.638;23.376;2022-07-30T07:00:37;94586.63;;;25.91;45.75
72308;BME280;60257;42.638;23.376;2022-07-30T07:03:03;94595.25;;;25.96;44.89
72308;BME280;60257;42.638;23.376;2022-07-30T07:05:28;94578.69;;;25.89;45.40
72308;BME280;60257;42.638;23.376;2022-07-30T07:07:54;94578.13;;;25.94;45.75
72308;BME280;60257;42.638;23.376;2022-07-30T07:10:20;94573.59;;;26.22;44.62
72308;BME280;60257;42.638;23.376;2022-07-30T07:12:45;94567.63;;;26.33;43.90
72308;BME280;60257;42.638;23.376;2022-07-30T07:15:11;94576.94;;;26.17;44.78
72308;BME280;60257;42.638;23.376;2022-07-30T07:17:37;94569.78;;;26.16;45.04
72308;BME280;60257;42.638;23.376;2022-07-30T07:20:03;94572.44;;;26.19;45.02
72308;BME280;60257;42.638;23.376;2022-07-30T07:22:28;94565.75;;;26.17;45.61
72308;BME280;60257;42.638;23.376;2022-07-30T07:24:54;94563.72;;;26.17;45.65
72308;BME280;60257;42.638;23.376;2022-07-30T07:27:19;94555.50;;;26.36;45.07
72308;BME280;60257;42.638;23.376;2022-07-30T07:29:45;94557.72;;;26.41;44.41
72308;BME280;60257;42.638;23.376;2022-07-30T07:32:10;94561.66;;;26.43;45.13
72308;BME280;60257;42.638;23.376;2022-07-30T07:34:36;94562.31;;;26.69;43.62
72308;BME280;60257;42.638;23.376;2022-07-30T07:37:01;94557.47;;;26.69;43.16
72308;BME280;60257;42.638;23.376;2022-07-30T07:39:27;94552.56;;;26.95;42.62
72308;BME280;60257;42.638;23.376;2022-07-30T07:41:52;94557.53;;;26.79;43.56
72308;BME280;60257;42.638;23.376;2022-07-30T07:44:18;94547.59;;;26.78;43.71
72308;BME280;60257;42.638;23.376;2022-07-30T07:46:43;94558.50;;;26.97;42.71
72308;BME280;60257;42.638;23.376;2022-07-30T07:49:09;94556.97;;;27.05;42.32
72308;BME280;60257;42.638;23.376;2022-07-30T07:51:34;94557.91;;;27.02;42.87
72308;BME280;60257;42.638;23.376;2022-07-30T07:54:00;94554.75;;;27.00;43.08
72308;BME280;60257;42.638;23.376;2022-07-30T07:56:26;94554.16;;;27.05;42.39
72308;BME280;60257;42.638;23.376;2022-07-30T07:58:51;94559.69;;;27.18;41.99
72308;BME280;60257;42.638;23.376;2022-07-30T08:01:19;94553.50;;;27.32;41.25
72308;BME280;60257;42.638;23.376;2022-07-30T08:03:45;94549.28;;;27.49;41.04
72308;BME280;60257;42.638;23.376;2022-07-30T08:06:11;94551.13;;;27.52;40.82
72308;BME280;60257;42.638;23.376;2022-07-30T08:08:36;94556.16;;;27.57;41.10
72308;BME280;60257;42.638;23.376;2022-07-30T08:11:03;94549.66;;;27.70;40.29
72308;BME280;60257;42.638;23.376;2022-07-30T08:13:28;94554.31;;;27.64;39.90
72308;BME280;60257;42.638;23.376;2022-07-30T08:15:54;94544.66;;;27.74;40.75
72308;BME280;60257;42.638;23.376;2022-07-30T08:18:19;94548.91;;;27.87;39.88
72308;BME280;60257;42.638;23.376;2022-07-30T08:20:44;94545.13;;;27.72;40.57
72308;BME280;60257;42.638;23.376;2022-07-30T08:23:10;94544.16;;;27.66;41.47
72308;BME280;60257;42.638;23.376;2022-07-30T08:25:35;94546.41;;;27.80;40.74
72308;BME280;60257;42.638;23.376;2022-07-30T08:28:01;94548.75;;;27.82;40.50
72308;BME280;60257;42.638;23.376;2022-07-30T08:30:28;94545.34;;;27.96;40.59
72308;BME280;60257;42.638;23.376;2022-07-30T08:32:53;94534.28;;;28.01;39.80
72308;BME280;60257;42.638;23.376;2022-07-30T08:35:19;94538.97;;;28.05;39.46
72308;BME280;60257;42.638;23.376;2022-07-30T08:37:45;94534.91;;;28.06;39.94
72308;BME280;60257;42.638;23.376;2022-07-30T08:40:11;94521.78;;;28.02;39.36
72308;BME280;60257;42.638;23.376;2022-07-30T08:42:36;94538.22;;;28.13;39.12
72308;BME280;60257;42.638;23.376;2022-07-30T08:45:02;94542.28;;;28.39;38.47
72308;BME280;60257;42.638;23.376;2022-07-30T08:47:33;94534.66;;;28.49;38.58
72308;BME280;60257;42.638;23.376;2022-07-30T08:50:00;94537.94;;;28.57;38.48
72308;BME280;60257;42.638;23.376;2022-07-30T08:52:33;94528.25;;;28.49;38.04
72308;BME280;60257;42.638;23.376;2022-07-30T08:55:00;94528.09;;;28.43;38.49
72308;BME280;60257;42.638;23.376;2022-07-30T08:57:30;94530.28;;;28.48;38.16
72308;BME280;60257;42.638;23.376;2022-07-30T08:59:57;94524.66;;;28.48;38.24
72308;BME280;60257;42.638;23.376;2022-07-30T09:02:23;94527.16;;;28.55;38.64
72308;BME280;60257;42.638;23.376;2022-07-30T09:04:49;94512.63;;;28.66;39.28
72308;BME280;60257;42.638;23.376;2022-07-30T09:07:14;94509.34;;;28.85;37.16
72308;BME280;60257;42.638;23.376;2022-07-30T09:09:40;94509.34;;;28.85;37.20
72308;BME280;60257;42.638;23.376;2022-07-30T09:15:07;94502.03;;;29.30;35.93
72308;BME280;60257;42.638;23.376;2022-07-30T09:20:14;94496.94;;;29.10;36.80
72308;BME280;60257;42.638;23.376;2022-07-30T09:22:55;94493.97;;;29.05;36.52
72308;BME280;60257;42.638;23.376;2022-07-30T09:25:42;94483.78;;;29.16;35.90
72308;BME280;60257;42.638;23.376;2022-07-30T09:28:09;94486.31;;;29.05;36.51
72308;BME280;60257;42.638;23.376;2022-07-30T09:30:52;94485.69;;;29.10;37.55
72308;BME280;60257;42.638;23.376;2022-07-30T09:33:37;94479.63;;;29.45;35.33
72308;BME280;60257;42.638;23.376;2022-07-30T09:36:08;94472.22;;;29.14;36.18
72308;BME280;60257;42.638;23.376;2022-07-30T09:38:50;94478.81;;;29.11;36.80
72308;BME280;60257;42.638;23.376;2022-07-30T09:41:19;94473.94;;;29.21;37.12
72308;BME280;60257;42.638;23.376;2022-07-30T09:43:51;94479.03;;;29.41;36.75
72308;BME280;60257;42.638;23.376;2022-07-30T09:46:17;94478.84;;;29.44;36.68
72308;BME280;60257;42.638;23.376;2022-07-30T09:48:43;94471.53;;;29.38;36.27
72308;BME280;60257;42.638;23.376;2022-07-30T09:51:11;94479.94;;;29.47;35.94
72308;BME280;60257;42.638;23.376;2022-07-30T09:53:55;94468.53;;;29.98;35.04
72308;BME280;60257;42.638;23.376;2022-07-30T09:56:28;94464.13;;;29.73;35.92
72308;BME280;60257;42.638;23.376;2022-07-30T09:58:54;94460.16;;;29.89;36.11
72308;BME280;60257;42.638;23.376;2022-07-30T10:01:20;94462.22;;;29.79;35.57
72308;BME280;60257;42.638;23.376;2022-07-30T10:03:46;94465.31;;;29.81;35.48
72308;BME280;60257;42.638;23.376;2022-07-30T10:06:12;94456.81;;;29.99;34.46
72308;BME280;60257;42.638;23.376;2022-07-30T10:08:43;94455.63;;;30.06;34.26
72308;BME280;60257;42.638;23.376;2022-07-30T10:11:14;94447.56;;;29.99;34.48
72308;BME280;60257;42.638;23.376;2022-07-30T10:13:40;94448.09;;;30.12;35.56
72308;BME280;60257;42.638;23.376;2022-07-30T10:16:07;94444.69;;;30.08;34.99
72308;BME280;60257;42.638;23.376;2022-07-30T10:18:33;94431.97;;;30.12;35.26
72308;BME280;60257;42.638;23.376;2022-07-30T10:21:00;94437.72;;;30.18;34.16
72308;BME280;60257;42.638;23.376;2022-07-30T10:23:27;94433.47;;;30.37;34.02
72308;BME280;60257;42.638;23.376;2022-07-30T10:25:58;94426.56;;;30.38;33.71
72308;BME280;60257;42.638;23.376;2022-07-30T10:28:24;94428.13;;;30.39;34.00
72308;BME280;60257;42.638;23.376;2022-07-30T10:30:52;94419.47;;;30.43;33.78
72308;BME280;60257;42.638;23.376;2022-07-30T10:33:17;94417.34;;;30.38;34.08
72308;BME280;60257;42.638;23.376;2022-07-30T10:35:45;94412.31;;;30.57;34.29
72308;BME280;60257;42.638;23.376;2022-07-30T10:38:14;94419.72;;;30.83;33.38
72308;BME280;60257;42.638;23.376;2022-07-30T10:43:48;94415.59;;;31.14;32.42
72308;BME280;60257;42.638;23.376;2022-07-30T10:49:13;94409.91;;;31.08;32.11
72308;BME280;60257;42.638;23.376;2022-07-30T10:51:43;94404.69;;;31.36;31.43
72308;BME280;60257;42.638;23.376;2022-07-30T10:54:41;94405.63;;;31.13;32.93
72308;BME280;60257;42.638;23.376;2022-07-30T10:57:18;94405.22;;;31.05;33.09
72308;BME280;60257;42.638;23.376;2022-07-30T11:02:30;94398.31;;;31.06;33.93
72308;BME280;60257;42.638;23.376;2022-07-30T11:07:44;94389.47;;;31.33;31.79
72308;BME280;60257;42.638;23.376;2022-07-30T11:10:38;94388.50;;;31.36;31.77
72308;BME280;60257;42.638;23.376;2022-07-30T11:13:07;94383.50;;;31.11;32.98
72308;BME280;60257;42.638;23.376;2022-07-30T11:18:19;94372.34;;;31.37;32.32
72308;BME280;60257;42.638;23.376;2022-07-30T11:21:20;94368.63;;;31.46;31.82
72308;BME280;60257;42.638;23.376;2022-07-30T11:23:45;94374.50;;;31.62;32.13
72308;BME280;60257;42.638;23.376;2022-07-30T11:29:07;94367.81;;;31.60;32.18
72308;BME280;60257;42.638;23.376;2022-07-30T11:31:52;94357.63;;;31.68;32.26
72308;BME280;60257;42.638;23.376;2022-07-30T11:37:06;94353.69;;;31.80;31.57
72308;BME280;60257;42.638;23.376;2022-07-30T11:42:23;94357.38;;;31.86;31.98
72308;BME280;60257;42.638;23.376;2022-07-30T11:44:48;94347.31;;;32.05;31.07
72308;BME280;60257;42.638;23.376;2022-07-30T11:47:14;94339.69;;;31.91;31.17
72308;BME280;60257;42.638;23.376;2022-07-30T11:49:40;94346.53;;;32.05;31.52
72308;BME280;60257;42.638;23.376;2022-07-30T11:52:07;94336.72;;;32.20;31.07
72308;BME280;60257;42.638;23.376;2022-07-30T11:54:32;94330.00;;;32.18;31.89
72308;BME280;60257;42.638;23.376;2022-07-30T11:56:58;94339.78;;;32.22;31.24
72308;BME280;60257;42.638;23.376;2022-07-30T11:59:24;94331.88;;;32.27;31.04
72308;BME280;60257;42.638;23.376;2022-07-30T12:01:51;94330.25;;;32.46;31.03
72308;BME280;60257;42.638;23.376;2022-07-30T12:04:17;94325.53;;;32.94;29.70
72308;BME280;60257;42.638;23.376;2022-07-30T12:06:47;94335.63;;;33.01;29.24
72308;BME280;60257;42.638;23.376;2022-07-30T12:09:33;94319.13;;;33.31;28.92
72308;BME280;60257;42.638;23.376;2022-07-30T12:11:58;94305.41;;;33.24;29.31
72308;BME280;60257;42.638;23.376;2022-07-30T12:14:24;94317.81;;;33.26;29.10
72308;BME280;60257;42.638;23.376;2022-07-30T12:16:51;94318.94;;;33.45;29.63
72308;BME280;60257;42.638;23.376;2022-07-30T12:19:16;94313.31;;;33.51;29.13
72308;BME280;60257;42.638;23.376;2022-07-30T12:21:42;94303.34;;;33.19;30.36
72308;BME280;60257;42.638;23.376;2022-07-30T12:24:07;94297.09;;;33.15;30.10
72308;BME280;60257;42.638;23.376;2022-07-30T12:26:34;94307.47;;;33.18;29.72
72308;BME280;60257;42.638;23.376;2022-07-30T12:29:03;94289.34;;;33.09;30.13
72308;BME280;60257;42.638;23.376;2022-07-30T12:31:29;94295.19;;;33.32;30.75
72308;BME280;60257;42.638;23.376;2022-07-30T12:33:55;94294.91;;;33.30;31.31
72308;BME280;60257;42.638;23.376;2022-07-30T12:36:30;94277.91;;;33.30;30.62
72308;BME280;60257;42.638;23.376;2022-07-30T12:38:56;94283.66;;;33.41;30.92
72308;BME280;60257;42.638;23.376;2022-07-30T12:41:45;94268.25;;;33.47;30.26
72308;BME280;60257;42.638;23.376;2022-07-30T12:47:00;94261.03;;;33.52;30.48
72308;BME280;60257;42.638;23.376;2022-07-30T12:49:29;94261.81;;;33.53;30.06
72308;BME280;60257;42.638;23.376;2022-07-30T12:51:55;94248.53;;;33.81;28.69
72308;BME280;60257;42.638;23.376;2022-07-30T12:54:21;94245.78;;;33.44;30.23
72308;BME280;60257;42.638;23.376;2022-07-30T12:57:03;94242.00;;;33.53;31.01
72308;BME280;60257;42.638;23.376;2022-07-30T12:59:30;94246.38;;;33.59;29.22
72308;BME280;60257;42.638;23.376;2022-07-30T13:01:56;94239.66;;;33.51;28.80
72308;BME280;60257;42.638;23.376;2022-07-30T13:04:25;94241.41;;;33.43;28.71
72308;BME280;60257;42.638;23.376;2022-07-30T13:07:10;94235.00;;;33.42;29.38
72308;BME280;60257;42.638;23.376;2022-07-30T13:09:38;94234.97;;;33.37;28.96
72308;BME280;60257;42.638;23.376;2022-07-30T13:12:05;94222.84;;;33.31;29.02
72308;BME280;60257;42.638;23.376;2022-07-30T13:14:31;94230.06;;;33.32;28.79
72308;BME280;60257;42.638;23.376;2022-07-30T13:16:56;94221.63;;;33.54;29.08
72308;BME280;60257;42.638;23.376;2022-07-30T13:19:23;94215.06;;;33.20;29.94
72308;BME280;60257;42.638;23.376;2022-07-30T13:21:49;94211.50;;;33.31;28.89
72308;BME280;60257;42.638;23.376;2022-07-30T13:24:16;94210.94;;;33.16;29.56
72308;BME280;60257;42.638;23.376;2022-07-30T13:26:41;94210.38;;;33.12;29.98
72308;BME280;60257;42.638;23.376;2022-07-30T13:29:07;94205.84;;;33.31;29.55